sensor_id;sensor_type;location;lat;lon;timestamp;temperature;humidity
37456;DHT22;23316;50.718;7.328;2022-11-15T00:01:07;13.80;62.60
37456;DHT22;23316;50.718;7.328;2022-11-15T00:03:34;13.90;62.70
37456;DHT22;23316;50.718;7.328;2022-11-15T00:06:02;13.90;62.70
37456;DHT22;23316;50.718;7.328;2022-11-15T00:08:30;14.00;62.60
37456;DHT22;23316;50.718;7.328;2022-11-15T00:11:01;14.00;62.50
37456;DHT22;23316;50.718;7.328;2022-11-15T00:13:29;14.00;62.40
37456;DHT22;23316;50.718;7.328;2022-11-15T00:15:57;14.00;62.10
37456;DHT22;23316;50.718;7.328;2022-11-15T00:18:25;14.00;61.90
37456;DHT22;23316;50.718;7.328;2022-11-15T00:20:52;14.10;61.80
37456;DHT22;23316;50.718;7.328;2022-11-15T00:23:19;14.10;61.80
37456;DHT22;23316;50.718;7.328;2022-11-15T00:25:46;14.10;61.70
37456;DHT22;23316;50.718;7.328;2022-11-15T00:28:15;14.10;61.70
37456;DHT22;23316;50.718;7.328;2022-11-15T00:30:42;14.10;61.80
37456;DHT22;23316;50.718;7.328;2022-11-15T00:33:09;14.10;61.70
37456;DHT22;23316;50.718;7.328;2022-11-15T00:35:37;14.10;61.70
37456;DHT22;23316;50.718;7.328;2022-11-15T00:38:04;14.10;61.60
37456;DHT22;23316;50.718;7.328;2022-11-15T00:40:31;14.20;61.60
37456;DHT22;23316;50.718;7.328;2022-11-15T00:42:59;14.20;61.60
37456;DHT22;23316;50.718;7.328;2022-11-15T00:45:27;14.20;61.70
37456;DHT22;23316;50.718;7.328;2022-11-15T00:47:54;14.20;61.70
37456;DHT22;23316;50.718;7.328;2022-11-15T00:50:22;14.20;61.60
37456;DHT22;23316;50.718;7.328;2022-11-15T00:52:49;14.20;61.50
37456;DHT22;23316;50.718;7.328;2022-11-15T00:55:17;14.20;61.50
37456;DHT22;23316;50.718;7.328;2022-11-15T00:57:45;14.30;61.40
37456;DHT22;23316;50.718;7.328;2022-11-15T01:00:13;14.30;61.30
37456;DHT22;23316;50.718;7.328;2022-11-15T01:02:42;14.30;61.20
37456;DHT22;23316;50.718;7.328;2022-11-15T01:05:09;14.30;61.20
37456;DHT22;23316;50.718;7.328;2022-11-15T01:07:36;14.30;61.20
37456;DHT22;23316;50.718;7.328;2022-11-15T01:10:04;14.30;61.30
37456;DHT22;23316;50.718;7.328;2022-11-15T01:12:32;14.30;61.30
37456;DHT22;23316;50.718;7.328;2022-11-15T01:14:59;14.40;61.40
37456;DHT22;23316;50.718;7.328;2022-11-15T01:17:26;14.30;61.40
37456;DHT22;23316;50.718;7.328;2022-11-15T01:19:55;14.40;61.50
37456;DHT22;23316;50.718;7.328;2022-11-15T01:22:22;14.40;61.50
37456;DHT22;23316;50.718;7.328;2022-11-15T01:24:50;14.40;61.50
37456;DHT22;23316;50.718;7.328;2022-11-15T01:27:17;14.40;61.60
37456;DHT22;23316;50.718;7.328;2022-11-15T01:29:44;14.50;61.60
37456;DHT22;23316;50.718;7.328;2022-11-15T01:32:12;14.50;61.50
37456;DHT22;23316;50.718;7.328;2022-11-15T01:34:39;14.50;61.40
37456;DHT22;23316;50.718;7.328;2022-11-15T01:37:08;14.50;61.40
37456;DHT22;23316;50.718;7.328;2022-11-15T01:39:35;14.50;62.10
37456;DHT22;23316;50.718;7.328;2022-11-15T01:42:03;14.50;61.30
37456;DHT22;23316;50.718;7.328;2022-11-15T01:44:42;14.50;61.20
37456;DHT22;23316;50.718;7.328;2022-11-15T01:47:13;14.50;61.40
37456;DHT22;23316;50.718;7.328;2022-11-15T01:49:47;14.50;61.30
37456;DHT22;23316;50.718;7.328;2022-11-15T01:52:20;14.50;61.30
37456;DHT22;23316;50.718;7.328;2022-11-15T01:54:50;14.50;61.20
37456;DHT22;23316;50.718;7.328;2022-11-15T01:57:20;14.50;61.20
37456;DHT22;23316;50.718;7.328;2022-11-15T01:59:48;14.50;61.20
37456;DHT22;23316;50.718;7.328;2022-11-15T02:02:15;14.50;61.20
37456;DHT22;23316;50.718;7.328;2022-11-15T02:04:45;14.50;61.20
37456;DHT22;23316;50.718;7.328;2022-11-15T02:07:15;14.50;61.20
37456;DHT22;23316;50.718;7.328;2022-11-15T02:09:45;14.60;61.20
37456;DHT22;23316;50.718;7.328;2022-11-15T02:12:15;14.50;61.10
37456;DHT22;23316;50.718;7.328;2022-11-15T02:14:47;14.50;61.10
37456;DHT22;23316;50.718;7.328;2022-11-15T02:17:28;14.60;61.00
37456;DHT22;23316;50.718;7.328;2022-11-15T02:20:23;14.50;61.00
37456;DHT22;23316;50.718;7.328;2022-11-15T02:23:13;14.60;61.10
37456;DHT22;23316;50.718;7.328;2022-11-15T02:25:56;14.60;61.00
37456;DHT22;23316;50.718;7.328;2022-11-15T02:28:42;14.60;60.90
37456;DHT22;23316;50.718;7.328;2022-11-15T02:31:17;14.60;61.10
37456;DHT22;23316;50.718;7.328;2022-11-15T02:33:54;14.60;61.00
37456;DHT22;23316;50.718;7.328;2022-11-15T02:36:34;14.60;61.10
37456;DHT22;23316;50.718;7.328;2022-11-15T02:39:11;14.60;61.10
37456;DHT22;23316;50.718;7.328;2022-11-15T02:41:45;14.60;61.20
37456;DHT22;23316;50.718;7.328;2022-11-15T02:44:19;14.60;61.30
37456;DHT22;23316;50.718;7.328;2022-11-15T02:46:52;14.60;61.20
37456;DHT22;23316;50.718;7.328;2022-11-15T02:49:39;14.60;61.20
37456;DHT22;23316;50.718;7.328;2022-11-15T02:52:07;14.60;61.20
37456;DHT22;23316;50.718;7.328;2022-11-15T02:54:35;14.60;61.10
37456;DHT22;23316;50.718;7.328;2022-11-15T02:57:05;14.60;61.10
37456;DHT22;23316;50.718;7.328;2022-11-15T03:00:04;14.60;61.10
37456;DHT22;23316;50.718;7.328;2022-11-15T03:02:54;14.60;61.20
37456;DHT22;23316;50.718;7.328;2022-11-15T03:05:28;14.60;61.10
37456;DHT22;23316;50.718;7.328;2022-11-15T03:08:02;14.60;60.90
37456;DHT22;23316;50.718;7.328;2022-11-15T03:10:39;14.70;60.90
37456;DHT22;23316;50.718;7.328;2022-11-15T03:13:17;14.70;61.00
37456;DHT22;23316;50.718;7.328;2022-11-15T03:15:53;14.70;60.90
37456;DHT22;23316;50.718;7.328;2022-11-15T03:18:28;14.70;60.90
37456;DHT22;23316;50.718;7.328;2022-11-15T03:20:58;14.70;60.90
37456;DHT22;23316;50.718;7.328;2022-11-15T03:23:26;14.70;60.90
37456;DHT22;23316;50.718;7.328;2022-11-15T03:25:56;14.70;60.90
37456;DHT22;23316;50.718;7.328;2022-11-15T03:28:29;14.70;60.90
37456;DHT22;23316;50.718;7.328;2022-11-15T03:31:01;14.70;60.90
37456;DHT22;23316;50.718;7.328;2022-11-15T03:33:54;14.80;60.90
37456;DHT22;23316;50.718;7.328;2022-11-15T03:36:23;14.70;61.60
37456;DHT22;23316;50.718;7.328;2022-11-15T03:38:53;14.80;60.90
37456;DHT22;23316;50.718;7.328;2022-11-15T03:41:26;14.80;61.70
37456;DHT22;23316;50.718;7.328;2022-11-15T03:43:57;14.80;61.00
37456;DHT22;23316;50.718;7.328;2022-11-15T03:46:32;14.80;61.10
37456;DHT22;23316;50.718;7.328;2022-11-15T03:49:05;14.80;61.10
37456;DHT22;23316;50.718;7.328;2022-11-15T03:51:34;14.80;61.10
37456;DHT22;23316;50.718;7.328;2022-11-15T03:54:03;14.80;61.00
37456;DHT22;23316;50.718;7.328;2022-11-15T03:56:31;14.80;61.00
37456;DHT22;23316;50.718;7.328;2022-11-15T03:58:58;14.80;61.10
37456;DHT22;23316;50.718;7.328;2022-11-15T04:01:25;14.80;61.10
37456;DHT22;23316;50.718;7.328;2022-11-15T04:03:52;14.80;61.10
37456;DHT22;23316;50.718;7.328;2022-11-15T04:06:21;14.80;61.20
37456;DHT22;23316;50.718;7.328;2022-11-15T04:08:48;14.90;61.20
37456;DHT22;23316;50.718;7.328;2022-11-15T04:11:15;14.90;61.20
37456;DHT22;23316;50.718;7.328;2022-11-15T04:13:43;14.90;61.20
37456;DHT22;23316;50.718;7.328;2022-11-15T04:16:10;14.90;61.20
37456;DHT22;23316;50.718;7.328;2022-11-15T04:18:37;14.90;61.10
37456;DHT22;23316;50.718;7.328;2022-11-15T04:21:05;14.90;61.10
37456;DHT22;23316;50.718;7.328;2022-11-15T04:23:51;14.90;61.10
37456;DHT22;23316;50.718;7.328;2022-11-15T04:26:36;14.90;61.10
37456;DHT22;23316;50.718;7.328;2022-11-15T04:29:03;14.90;61.00
37456;DHT22;23316;50.718;7.328;2022-11-15T04:31:48;14.90;60.90
37456;DHT22;23316;50.718;7.328;2022-11-15T04:34:15;14.90;60.80
37456;DHT22;23316;50.718;7.328;2022-11-15T04:36:42;14.90;60.70
37456;DHT22;23316;50.718;7.328;2022-11-15T04:39:28;14.90;60.60
37456;DHT22;23316;50.718;7.328;2022-11-15T04:41:55;14.80;60.60
37456;DHT22;23316;50.718;7.328;2022-11-15T04:44:23;14.80;60.70
37456;DHT22;23316;50.718;7.328;2022-11-15T04:46:50;14.80;60.70
37456;DHT22;23316;50.718;7.328;2022-11-15T04:49:17;14.80;60.90
37456;DHT22;23316;50.718;7.328;2022-11-15T04:51:45;14.80;61.10
37456;DHT22;23316;50.718;7.328;2022-11-15T04:54:12;14.80;61.30
37456;DHT22;23316;50.718;7.328;2022-11-15T04:56:42;14.80;61.40
37456;DHT22;23316;50.718;7.328;2022-11-15T04:59:09;14.70;61.50
37456;DHT22;23316;50.718;7.328;2022-11-15T05:01:36;14.80;61.70
37456;DHT22;23316;50.718;7.328;2022-11-15T05:04:04;14.80;61.80
37456;DHT22;23316;50.718;7.328;2022-11-15T05:06:46;14.70;61.80
37456;DHT22;23316;50.718;7.328;2022-11-15T05:09:13;14.80;61.90
37456;DHT22;23316;50.718;7.328;2022-11-15T05:11:42;14.70;61.90
37456;DHT22;23316;50.718;7.328;2022-11-15T05:14:09;14.70;61.90
37456;DHT22;23316;50.718;7.328;2022-11-15T05:16:37;14.80;62.00
37456;DHT22;23316;50.718;7.328;2022-11-15T05:19:05;14.80;62.00
37456;DHT22;23316;50.718;7.328;2022-11-15T05:21:33;14.80;61.90
37456;DHT22;23316;50.718;7.328;2022-11-15T05:24:01;14.80;62.00
37456;DHT22;23316;50.718;7.328;2022-11-15T05:26:28;14.80;61.90
37456;DHT22;23316;50.718;7.328;2022-11-15T05:28:58;14.80;61.90
37456;DHT22;23316;50.718;7.328;2022-11-15T05:31:26;14.80;61.90
37456;DHT22;23316;50.718;7.328;2022-11-15T05:33:55;14.80;61.80
37456;DHT22;23316;50.718;7.328;2022-11-15T05:36:29;14.80;61.70
37456;DHT22;23316;50.718;7.328;2022-11-15T05:38:58;14.80;61.70
37456;DHT22;23316;50.718;7.328;2022-11-15T05:41:29;14.90;61.70
37456;DHT22;23316;50.718;7.328;2022-11-15T05:44:00;14.90;61.60
37456;DHT22;23316;50.718;7.328;2022-11-15T05:46:29;14.90;61.50
37456;DHT22;23316;50.718;7.328;2022-11-15T05:48:56;14.90;61.20
37456;DHT22;23316;50.718;7.328;2022-11-15T05:51:25;14.90;61.10
37456;DHT22;23316;50.718;7.328;2022-11-15T05:53:57;14.80;60.80
37456;DHT22;23316;50.718;7.328;2022-11-15T05:56:25;14.90;60.80
37456;DHT22;23316;50.718;7.328;2022-11-15T05:58:53;14.80;60.60
37456;DHT22;23316;50.718;7.328;2022-11-15T06:01:23;14.80;60.50
37456;DHT22;23316;50.718;7.328;2022-11-15T06:03:51;14.80;60.40
37456;DHT22;23316;50.718;7.328;2022-11-15T06:06:18;14.80;60.30
37456;DHT22;23316;50.718;7.328;2022-11-15T06:08:46;14.80;60.20
37456;DHT22;23316;50.718;7.328;2022-11-15T06:11:14;14.80;60.10
37456;DHT22;23316;50.718;7.328;2022-11-15T06:13:41;14.80;60.00
37456;DHT22;23316;50.718;7.328;2022-11-15T06:16:08;14.70;59.90
37456;DHT22;23316;50.718;7.328;2022-11-15T06:18:37;14.70;59.90
37456;DHT22;23316;50.718;7.328;2022-11-15T06:21:05;14.70;59.80
37456;DHT22;23316;50.718;7.328;2022-11-15T06:23:34;14.70;59.80
37456;DHT22;23316;50.718;7.328;2022-11-15T06:26:02;14.70;59.70
37456;DHT22;23316;50.718;7.328;2022-11-15T06:28:30;14.60;59.60
37456;DHT22;23316;50.718;7.328;2022-11-15T06:31:02;14.60;59.60
37456;DHT22;23316;50.718;7.328;2022-11-15T06:33:29;14.60;59.50
37456;DHT22;23316;50.718;7.328;2022-11-15T06:36:01;14.60;59.60
37456;DHT22;23316;50.718;7.328;2022-11-15T06:38:28;14.60;59.60
37456;DHT22;23316;50.718;7.328;2022-11-15T06:41:01;14.50;59.60
37456;DHT22;23316;50.718;7.328;2022-11-15T06:43:29;14.50;59.60
37456;DHT22;23316;50.718;7.328;2022-11-15T06:45:57;14.50;59.60
37456;DHT22;23316;50.718;7.328;2022-11-15T06:48:25;14.50;59.50
37456;DHT22;23316;50.718;7.328;2022-11-15T06:50:52;14.50;59.50
37456;DHT22;23316;50.718;7.328;2022-11-15T06:53:22;14.50;59.40
37456;DHT22;23316;50.718;7.328;2022-11-15T06:55:49;14.50;59.40
37456;DHT22;23316;50.718;7.328;2022-11-15T06:58:16;14.50;59.40
37456;DHT22;23316;50.718;7.328;2022-11-15T07:00:44;14.40;59.20
37456;DHT22;23316;50.718;7.328;2022-11-15T07:03:11;14.40;59.20
37456;DHT22;23316;50.718;7.328;2022-11-15T07:05:38;14.40;59.20
37456;DHT22;23316;50.718;7.328;2022-11-15T07:08:06;14.40;59.20
37456;DHT22;23316;50.718;7.328;2022-11-15T07:10:34;14.40;59.20
37456;DHT22;23316;50.718;7.328;2022-11-15T07:13:01;14.40;59.20
37456;DHT22;23316;50.718;7.328;2022-11-15T07:15:29;14.30;59.10
37456;DHT22;23316;50.718;7.328;2022-11-15T07:17:56;14.30;59.20
37456;DHT22;23316;50.718;7.328;2022-11-15T07:20:27;14.30;59.10
37456;DHT22;23316;50.718;7.328;2022-11-15T07:22:59;14.30;59.10
37456;DHT22;23316;50.718;7.328;2022-11-15T07:25:27;14.30;59.60
37456;DHT22;23316;50.718;7.328;2022-11-15T07:27:56;14.30;59.10
37456;DHT22;23316;50.718;7.328;2022-11-15T07:30:24;14.30;59.10
37456;DHT22;23316;50.718;7.328;2022-11-15T07:32:53;14.30;59.10
37456;DHT22;23316;50.718;7.328;2022-11-15T07:35:20;14.30;59.20
37456;DHT22;23316;50.718;7.328;2022-11-15T07:37:53;14.30;59.20
37456;DHT22;23316;50.718;7.328;2022-11-15T07:40:21;14.30;59.30
37456;DHT22;23316;50.718;7.328;2022-11-15T07:42:49;14.30;59.30
37456;DHT22;23316;50.718;7.328;2022-11-15T07:45:24;14.20;59.30
37456;DHT22;23316;50.718;7.328;2022-11-15T07:47:53;14.20;59.30
37456;DHT22;23316;50.718;7.328;2022-11-15T07:50:21;14.30;59.30
37456;DHT22;23316;50.718;7.328;2022-11-15T07:52:53;14.20;59.40
37456;DHT22;23316;50.718;7.328;2022-11-15T07:55:21;14.20;59.40
37456;DHT22;23316;50.718;7.328;2022-11-15T07:57:48;14.20;59.40
37456;DHT22;23316;50.718;7.328;2022-11-15T08:00:16;14.20;59.40
37456;DHT22;23316;50.718;7.328;2022-11-15T08:02:45;14.20;59.50
37456;DHT22;23316;50.718;7.328;2022-11-15T08:05:13;14.30;59.60
37456;DHT22;23316;50.718;7.328;2022-11-15T08:07:40;14.30;59.60
37456;DHT22;23316;50.718;7.328;2022-11-15T08:10:08;14.30;59.60
37456;DHT22;23316;50.718;7.328;2022-11-15T08:12:37;14.30;59.60
37456;DHT22;23316;50.718;7.328;2022-11-15T08:15:05;14.30;59.60
37456;DHT22;23316;50.718;7.328;2022-11-15T08:17:33;14.30;59.60
37456;DHT22;23316;50.718;7.328;2022-11-15T08:20:02;14.30;59.60
37456;DHT22;23316;50.718;7.328;2022-11-15T08:22:29;14.40;59.70
37456;DHT22;23316;50.718;7.328;2022-11-15T08:24:56;14.30;59.60
37456;DHT22;23316;50.718;7.328;2022-11-15T08:27:25;14.40;59.80
37456;DHT22;23316;50.718;7.328;2022-11-15T08:29:52;14.40;59.60
37456;DHT22;23316;50.718;7.328;2022-11-15T08:32:20;14.40;59.60
37456;DHT22;23316;50.718;7.328;2022-11-15T08:34:47;14.40;59.60
37456;DHT22;23316;50.718;7.328;2022-11-15T08:37:15;14.40;59.50
37456;DHT22;23316;50.718;7.328;2022-11-15T08:39:43;14.40;59.50
37456;DHT22;23316;50.718;7.328;2022-11-15T08:42:10;14.50;59.50
37456;DHT22;23316;50.718;7.328;2022-11-15T08:44:37;14.50;59.40
37456;DHT22;23316;50.718;7.328;2022-11-15T08:47:04;14.50;59.20
37456;DHT22;23316;50.718;7.328;2022-11-15T08:49:32;14.50;59.10
37456;DHT22;23316;50.718;7.328;2022-11-15T08:51:59;14.50;59.00
37456;DHT22;23316;50.718;7.328;2022-11-15T08:54:27;14.50;58.90
37456;DHT22;23316;50.718;7.328;2022-11-15T08:56:55;14.60;58.70
37456;DHT22;23316;50.718;7.328;2022-11-15T08:59:22;14.60;58.70
37456;DHT22;23316;50.718;7.328;2022-11-15T09:01:49;14.60;58.50
37456;DHT22;23316;50.718;7.328;2022-11-15T09:04:17;14.60;58.40
37456;DHT22;23316;50.718;7.328;2022-11-15T09:06:44;14.60;58.30
37456;DHT22;23316;50.718;7.328;2022-11-15T09:09:11;14.60;58.10
37456;DHT22;23316;50.718;7.328;2022-11-15T09:11:40;14.70;58.20
37456;DHT22;23316;50.718;7.328;2022-11-15T09:14:07;14.70;58.00
37456;DHT22;23316;50.718;7.328;2022-11-15T09:16:34;14.70;58.00
37456;DHT22;23316;50.718;7.328;2022-11-15T09:19:02;14.70;58.00
37456;DHT22;23316;50.718;7.328;2022-11-15T09:21:29;14.70;57.80
37456;DHT22;23316;50.718;7.328;2022-11-15T09:23:57;14.70;57.80
37456;DHT22;23316;50.718;7.328;2022-11-15T09:26:24;14.80;57.70
37456;DHT22;23316;50.718;7.328;2022-11-15T09:28:53;14.80;57.70
37456;DHT22;23316;50.718;7.328;2022-11-15T09:31:20;14.90;57.50
37456;DHT22;23316;50.718;7.328;2022-11-15T09:33:47;14.80;57.30
37456;DHT22;23316;50.718;7.328;2022-11-15T09:36:15;14.90;57.20
37456;DHT22;23316;50.718;7.328;2022-11-15T09:38:42;14.90;57.10
37456;DHT22;23316;50.718;7.328;2022-11-15T09:41:48;14.90;57.10
37456;DHT22;23316;50.718;7.328;2022-11-15T09:44:39;14.90;56.60
37456;DHT22;23316;50.718;7.328;2022-11-15T09:50:08;15.00;56.60
37456;DHT22;23316;50.718;7.328;2022-11-15T09:52:37;15.00;56.70
37456;DHT22;23316;50.718;7.328;2022-11-15T09:55:09;15.00;56.60
37456;DHT22;23316;50.718;7.328;2022-11-15T09:57:41;15.00;56.40
37456;DHT22;23316;50.718;7.328;2022-11-15T10:00:16;15.00;56.20
37456;DHT22;23316;50.718;7.328;2022-11-15T10:03:07;15.10;56.00
37456;DHT22;23316;50.718;7.328;2022-11-15T10:05:38;15.10;55.80
37456;DHT22;23316;50.718;7.328;2022-11-15T10:08:15;15.20;55.80
37456;DHT22;23316;50.718;7.328;2022-11-15T10:10:46;15.20;55.30
37456;DHT22;23316;50.718;7.328;2022-11-15T10:13:16;15.20;55.30
37456;DHT22;23316;50.718;7.328;2022-11-15T10:15:47;15.20;55.30
37456;DHT22;23316;50.718;7.328;2022-11-15T10:18:16;15.30;55.10
37456;DHT22;23316;50.718;7.328;2022-11-15T10:20:48;15.20;55.10
37456;DHT22;23316;50.718;7.328;2022-11-15T10:23:18;15.30;55.10
37456;DHT22;23316;50.718;7.328;2022-11-15T10:25:46;15.30;54.90
37456;DHT22;23316;50.718;7.328;2022-11-15T10:28:15;15.30;54.60
37456;DHT22;23316;50.718;7.328;2022-11-15T10:30:46;15.40;54.60
37456;DHT22;23316;50.718;7.328;2022-11-15T10:33:23;15.40;54.50
37456;DHT22;23316;50.718;7.328;2022-11-15T10:36:19;15.40;54.40
37456;DHT22;23316;50.718;7.328;2022-11-15T10:38:57;15.40;54.60
37456;DHT22;23316;50.718;7.328;2022-11-15T10:41:45;15.50;54.40
37456;DHT22;23316;50.718;7.328;2022-11-15T10:44:22;15.50;54.40
37456;DHT22;23316;50.718;7.328;2022-11-15T10:47:20;15.50;54.20
37456;DHT22;23316;50.718;7.328;2022-11-15T10:49:57;15.60;54.00
37456;DHT22;23316;50.718;7.328;2022-11-15T10:52:25;15.60;54.00
37456;DHT22;23316;50.718;7.328;2022-11-15T10:54:55;15.60;53.90
37456;DHT22;23316;50.718;7.328;2022-11-15T10:57:25;15.60;53.90
37456;DHT22;23316;50.718;7.328;2022-11-15T10:59:55;15.60;53.90
37456;DHT22;23316;50.718;7.328;2022-11-15T11:02:33;15.70;53.80
37456;DHT22;23316;50.718;7.328;2022-11-15T11:05:02;15.70;53.60
37456;DHT22;23316;50.718;7.328;2022-11-15T11:07:31;15.70;53.70
37456;DHT22;23316;50.718;7.328;2022-11-15T11:10:01;15.70;53.70
37456;DHT22;23316;50.718;7.328;2022-11-15T11:12:31;15.70;53.70
37456;DHT22;23316;50.718;7.328;2022-11-15T11:15:00;15.70;53.60
37456;DHT22;23316;50.718;7.328;2022-11-15T11:17:48;15.70;53.60
37456;DHT22;23316;50.718;7.328;2022-11-15T11:20:21;15.70;53.40
37456;DHT22;23316;50.718;7.328;2022-11-15T11:23:03;15.70;53.50
37456;DHT22;23316;50.718;7.328;2022-11-15T11:25:34;15.70;53.40
37456;DHT22;23316;50.718;7.328;2022-11-15T11:28:14;15.70;53.40
37456;DHT22;23316;50.718;7.328;2022-11-15T11:30:53;15.70;53.20
37456;DHT22;23316;50.718;7.328;2022-11-15T11:33:31;15.60;53.10
37456;DHT22;23316;50.718;7.328;2022-11-15T11:36:09;15.70;53.30
37456;DHT22;23316;50.718;7.328;2022-11-15T11:38:49;15.70;53.40
37456;DHT22;23316;50.718;7.328;2022-11-15T11:41:29;15.70;53.60
37456;DHT22;23316;50.718;7.328;2022-11-15T11:44:06;15.70;53.50
37456;DHT22;23316;50.718;7.328;2022-11-15T11:46:47;15.70;53.70
37456;DHT22;23316;50.718;7.328;2022-11-15T11:49:21;15.70;53.80
37456;DHT22;23316;50.718;7.328;2022-11-15T11:51:53;15.70;53.70
37456;DHT22;23316;50.718;7.328;2022-11-15T11:54:26;15.70;53.70
37456;DHT22;23316;50.718;7.328;2022-11-15T11:57:00;15.80;53.70
37456;DHT22;23316;50.718;7.328;2022-11-15T11:59:37;15.80;53.70
37456;DHT22;23316;50.718;7.328;2022-11-15T12:02:13;15.80;53.70
37456;DHT22;23316;50.718;7.328;2022-11-15T12:04:45;15.80;53.80
37456;DHT22;23316;50.718;7.328;2022-11-15T12:07:19;15.90;53.90
37456;DHT22;23316;50.718;7.328;2022-11-15T12:09:53;16.00;53.70
37456;DHT22;23316;50.718;7.328;2022-11-15T12:12:30;15.90;53.30
37456;DHT22;23316;50.718;7.328;2022-11-15T12:15:01;16.00;53.20
37456;DHT22;23316;50.718;7.328;2022-11-15T12:17:31;16.00;53.30
37456;DHT22;23316;50.718;7.328;2022-11-15T12:20:02;16.00;53.10
37456;DHT22;23316;50.718;7.328;2022-11-15T12:22:37;16.10;53.20
37456;DHT22;23316;50.718;7.328;2022-11-15T12:25:13;16.10;53.20
37456;DHT22;23316;50.718;7.328;2022-11-15T12:27:45;16.10;53.30
37456;DHT22;23316;50.718;7.328;2022-11-15T12:30:17;16.10;53.40
37456;DHT22;23316;50.718;7.328;2022-11-15T12:33:00;16.20;53.50
37456;DHT22;23316;50.718;7.328;2022-11-15T12:35:34;16.20;53.10
37456;DHT22;23316;50.718;7.328;2022-11-15T12:38:01;16.20;53.00
37456;DHT22;23316;50.718;7.328;2022-11-15T12:40:31;16.20;53.00
37456;DHT22;23316;50.718;7.328;2022-11-15T12:43:05;16.20;53.10
37456;DHT22;23316;50.718;7.328;2022-11-15T12:45:39;16.20;53.10
37456;DHT22;23316;50.718;7.328;2022-11-15T12:54:57;16.30;53.10
37456;DHT22;23316;50.718;7.328;2022-11-15T12:57:39;16.30;53.30
37456;DHT22;23316;50.718;7.328;2022-11-15T13:03:19;16.40;53.10
37456;DHT22;23316;50.718;7.328;2022-11-15T13:05:56;16.40;53.20
37456;DHT22;23316;50.718;7.328;2022-11-15T13:08:54;16.40;53.20
37456;DHT22;23316;50.718;7.328;2022-11-15T13:11:51;16.40;52.90
37456;DHT22;23316;50.718;7.328;2022-11-15T13:14:50;16.40;52.80
37456;DHT22;23316;50.718;7.328;2022-11-15T13:17:30;16.40;52.80
37456;DHT22;23316;50.718;7.328;2022-11-15T13:20:23;16.40;52.90
37456;DHT22;23316;50.718;7.328;2022-11-15T13:22:53;16.50;53.00
37456;DHT22;23316;50.718;7.328;2022-11-15T13:28:22;16.40;52.90
37456;DHT22;23316;50.718;7.328;2022-11-15T13:30:58;16.50;53.10
37456;DHT22;23316;50.718;7.328;2022-11-15T13:33:31;16.50;52.80
37456;DHT22;23316;50.718;7.328;2022-11-15T13:36:01;16.50;52.90
37456;DHT22;23316;50.718;7.328;2022-11-15T13:38:30;16.50;52.90
37456;DHT22;23316;50.718;7.328;2022-11-15T13:40:59;16.50;52.90
37456;DHT22;23316;50.718;7.328;2022-11-15T13:43:34;16.50;52.90
37456;DHT22;23316;50.718;7.328;2022-11-15T13:46:09;16.50;52.80
37456;DHT22;23316;50.718;7.328;2022-11-15T13:48:37;16.60;52.80
37456;DHT22;23316;50.718;7.328;2022-11-15T13:51:08;16.50;52.70
37456;DHT22;23316;50.718;7.328;2022-11-15T13:53:38;16.50;52.60
37456;DHT22;23316;50.718;7.328;2022-11-15T13:56:07;16.50;52.60
37456;DHT22;23316;50.718;7.328;2022-11-15T13:58:38;16.50;52.50
37456;DHT22;23316;50.718;7.328;2022-11-15T14:01:06;16.50;52.20
37456;DHT22;23316;50.718;7.328;2022-11-15T14:03:41;16.60;52.50
37456;DHT22;23316;50.718;7.328;2022-11-15T14:06:15;16.50;52.40
37456;DHT22;23316;50.718;7.328;2022-11-15T14:08:59;16.50;52.50
37456;DHT22;23316;50.718;7.328;2022-11-15T14:11:27;16.60;52.40
37456;DHT22;23316;50.718;7.328;2022-11-15T14:14:20;16.60;52.60
37456;DHT22;23316;50.718;7.328;2022-11-15T14:16:50;16.60;52.30
37456;DHT22;23316;50.718;7.328;2022-11-15T14:19:35;16.60;52.30
37456;DHT22;23316;50.718;7.328;2022-11-15T14:22:12;16.60;52.30
37456;DHT22;23316;50.718;7.328;2022-11-15T14:24:40;16.60;52.50
37456;DHT22;23316;50.718;7.328;2022-11-15T14:27:25;16.60;52.60
37456;DHT22;23316;50.718;7.328;2022-11-15T14:29:54;16.60;52.50
37456;DHT22;23316;50.718;7.328;2022-11-15T14:32:23;16.60;52.50
37456;DHT22;23316;50.718;7.328;2022-11-15T14:34:55;16.60;52.60
37456;DHT22;23316;50.718;7.328;2022-11-15T14:37:24;16.60;52.60
37456;DHT22;23316;50.718;7.328;2022-11-15T14:39:52;16.60;52.50
37456;DHT22;23316;50.718;7.328;2022-11-15T14:42:20;16.60;52.60
37456;DHT22;23316;50.718;7.328;2022-11-15T14:44:48;16.60;52.50
37456;DHT22;23316;50.718;7.328;2022-11-15T14:47:17;16.60;52.50
37456;DHT22;23316;50.718;7.328;2022-11-15T14:49:44;16.60;52.60
37456;DHT22;23316;50.718;7.328;2022-11-15T14:52:26;16.60;52.50
37456;DHT22;23316;50.718;7.328;2022-11-15T14:54:54;16.70;52.50
37456;DHT22;23316;50.718;7.328;2022-11-15T14:57:21;16.60;52.60
37456;DHT22;23316;50.718;7.328;2022-11-15T14:59:49;16.60;52.60
37456;DHT22;23316;50.718;7.328;2022-11-15T15:02:19;16.60;52.60
37456;DHT22;23316;50.718;7.328;2022-11-15T15:04:48;16.60;52.60
37456;DHT22;23316;50.718;7.328;2022-11-15T15:07:19;16.70;52.70
37456;DHT22;23316;50.718;7.328;2022-11-15T15:09:46;16.60;52.70
37456;DHT22;23316;50.718;7.328;2022-11-15T15:12:16;16.60;52.70
37456;DHT22;23316;50.718;7.328;2022-11-15T15:14:44;16.60;52.70
37456;DHT22;23316;50.718;7.328;2022-11-15T15:17:12;16.60;52.70
37456;DHT22;23316;50.718;7.328;2022-11-15T15:19:40;16.60;52.70
37456;DHT22;23316;50.718;7.328;2022-11-15T15:22:12;16.60;52.70
37456;DHT22;23316;50.718;7.328;2022-11-15T15:24:40;16.60;52.60
37456;DHT22;23316;50.718;7.328;2022-11-15T15:27:08;16.60;52.60
37456;DHT22;23316;50.718;7.328;2022-11-15T15:29:35;16.50;52.60
37456;DHT22;23316;50.718;7.328;2022-11-15T15:32:02;16.50;52.50
37456;DHT22;23316;50.718;7.328;2022-11-15T15:34:30;16.50;52.50
37456;DHT22;23316;50.718;7.328;2022-11-15T15:37:12;16.50;52.50
37456;DHT22;23316;50.718;7.328;2022-11-15T15:39:45;16.50;52.50
37456;DHT22;23316;50.718;7.328;2022-11-15T15:42:12;16.50;52.60
37456;DHT22;23316;50.718;7.328;2022-11-15T15:44:40;16.50;52.60
37456;DHT22;23316;50.718;7.328;2022-11-15T15:47:10;16.50;52.60
37456;DHT22;23316;50.718;7.328;2022-11-15T15:49:38;16.50;52.60
37456;DHT22;23316;50.718;7.328;2022-11-15T15:52:05;16.40;52.60
37456;DHT22;23316;50.718;7.328;2022-11-15T15:54:34;16.40;52.70
37456;DHT22;23316;50.718;7.328;2022-11-15T15:57:01;16.40;52.70
37456;DHT22;23316;50.718;7.328;2022-11-15T15:59:29;16.40;52.70
37456;DHT22;23316;50.718;7.328;2022-11-15T16:01:56;16.40;52.70
37456;DHT22;23316;50.718;7.328;2022-11-15T16:04:23;16.40;52.70
37456;DHT22;23316;50.718;7.328;2022-11-15T16:06:50;16.40;52.70
37456;DHT22;23316;50.718;7.328;2022-11-15T16:09:19;16.40;52.70
37456;DHT22;23316;50.718;7.328;2022-11-15T16:12:07;16.40;52.80